Time;durP1;ratioP1;P1;durP2;ratioP2;P2;SDS_P1;SDS_P2;PMS_P1;PMS_P2;Temp;Humidity;BMP_temperature;BMP_pressure;BME280_temperature;BME280_humidity;BME280_pressure;Samples;Min_cycle;Max_cycle;Signal;HPM_P1;HPM_P2
2023/06/29 00:01:56;;;;;;;4.22;2.60;;;18.60;66.40;;;;;;5014077;28;20489;-70
2023/06/29 00:04:25;;;;;;;4.60;2.78;;;18.60;66.50;;;;;;5015931;28;20054;-69
2023/06/29 00:06:52;;;;;;;4.53;2.47;;;18.60;66.40;;;;;;5010804;28;20058;-71
2023/06/29 00:09:20;;;;;;;4.85;2.88;;;18.60;66.30;;;;;;5017542;28;20554;-70
2023/06/29 00:11:47;;;;;;;4.93;2.63;;;18.50;66.50;;;;;;5017446;28;20049;-71
2023/06/29 00:14:14;;;;;;;4.75;2.50;;;18.40;66.70;;;;;;5016072;28;21863;-70
2023/06/29 00:16:42;;;;;;;4.78;2.70;;;18.40;66.80;;;;;;5009992;28;20057;-70
2023/06/29 00:19:11;;;;;;;4.38;2.42;;;18.30;66.90;;;;;;4988929;28;20057;-70
2023/06/29 00:21:57;;;;;;;4.18;2.25;;;18.30;66.90;;;;;;5008211;28;20049;-70
2023/06/29 00:24:31;;;;;;;4.40;2.47;;;18.30;66.80;;;;;;4996843;28;20813;-69
2023/06/29 00:26:58;;;;;;;4.68;2.40;;;18.30;67.10;;;;;;5012286;28;20061;-70
2023/06/29 00:29:26;;;;;;;3.83;2.40;;;18.20;67.20;;;;;;5016501;28;20405;-71
2023/06/29 00:31:53;;;;;;;3.88;2.60;;;18.20;67.30;;;;;;5015362;28;20536;-69
2023/06/29 00:34:22;;;;;;;4.97;2.72;;;18.10;67.50;;;;;;4997261;28;20077;-71
2023/06/29 00:36:48;;;;;;;5.53;2.40;;;18.10;67.60;;;;;;4988239;28;20058;-70
2023/06/29 00:39:16;;;;;;;3.20;2.33;;;18.10;67.60;;;;;;4976961;28;20062;-71
2023/06/29 00:41:43;;;;;;;4.00;2.10;;;18.10;67.70;;;;;;4997770;28;20464;-70
2023/06/29 00:44:10;;;;;;;4.63;2.50;;;18.00;67.90;;;;;;4999077;28;20042;-71
2023/06/29 00:46:37;;;;;;;4.03;2.42;;;18.00;68.10;;;;;;4998916;28;20512;-69
2023/06/29 00:49:04;;;;;;;3.92;2.53;;;17.90;68.10;;;;;;5010041;28;20446;-72
2023/06/29 00:51:33;;;;;;;5.25;2.60;;;18.00;68.10;;;;;;5014716;28;20073;-71
2023/06/29 00:54:00;;;;;;;4.57;2.63;;;18.00;68.20;;;;;;5013638;28;20045;-70
2023/06/29 00:56:28;;;;;;;4.32;2.65;;;17.90;68.40;;;;;;4996938;28;20397;-69
2023/06/29 00:58:55;;;;;;;4.32;2.75;;;17.90;68.50;;;;;;5000546;28;20125;-68
2023/06/29 01:01:22;;;;;;;5.13;3.00;;;17.90;68.50;;;;;;5006873;28;20104;-70
2023/06/29 01:03:49;;;;;;;3.88;2.72;;;17.90;68.50;;;;;;5012939;28;20052;-70
2023/06/29 01:06:20;;;;;;;4.40;2.67;;;17.90;68.60;;;;;;5001540;28;20070;-70
2023/06/29 01:08:52;;;;;;;3.92;2.45;;;17.80;68.50;;;;;;4980101;28;20047;-70
2023/06/29 01:11:21;;;;;;;4.07;2.58;;;17.70;68.70;;;;;;5002464;28;20477;-71
2023/06/29 01:13:54;;;;;;;4.13;2.50;;;17.70;69.00;;;;;;4990179;28;20123;-71
2023/06/29 01:16:22;;;;;;;4.07;2.30;;;17.60;69.00;;;;;;5017026;28;20052;-71
2023/06/29 01:18:52;;;;;;;4.32;2.60;;;17.60;69.10;;;;;;5015585;28;20053;-70
2023/06/29 01:21:22;;;;;;;4.93;2.65;;;17.60;69.20;;;;;;5013962;28;20120;-70
2023/06/29 01:23:54;;;;;;;4.20;2.47;;;17.60;69.40;;;;;;5017188;28;20037;-70
2023/06/29 01:26:24;;;;;;;5.57;3.08;;;17.60;69.40;;;;;;5015393;28;20050;-70
2023/06/29 01:28:52;;;;;;;4.97;2.67;;;17.60;69.40;;;;;;5002152;28;20428;-72
2023/06/29 01:31:19;;;;;;;4.55;2.80;;;17.60;69.50;;;;;;5010745;28;20049;-69
2023/06/29 01:33:50;;;;;;;5.25;3.08;;;17.60;69.50;;;;;;4996050;28;20050;-71
2023/06/29 01:36:28;;;;;;;4.80;3.10;;;17.50;69.50;;;;;;5011751;28;20042;-70
2023/06/29 01:39:01;;;;;;;4.03;2.72;;;17.50;69.60;;;;;;5011945;28;20159;-71
2023/06/29 01:41:33;;;;;;;6.50;3.05;;;17.50;69.50;;;;;;5016300;28;20042;-69
2023/06/29 01:44:03;;;;;;;5.22;2.67;;;17.50;69.60;;;;;;4986089;28;20050;-69
2023/06/29 01:46:32;;;;;;;5.60;3.08;;;17.50;69.70;;;;;;5002132;28;20050;-71
2023/06/29 01:48:59;;;;;;;5.32;3.00;;;17.50;69.60;;;;;;4983858;28;20070;-69
2023/06/29 01:51:26;;;;;;;4.70;2.85;;;17.50;69.80;;;;;;5002641;28;20053;-71
2023/06/29 01:53:55;;;;;;;5.28;2.80;;;17.40;69.90;;;;;;5004083;28;20058;-69
2023/06/29 01:56:21;;;;;;;4.82;3.20;;;17.40;69.80;;;;;;4998901;28;20698;-71
2023/06/29 01:58:50;;;;;;;5.05;3.00;;;17.40;69.90;;;;;;4999506;28;20481;-72
2023/06/29 02:01:17;;;;;;;5.05;2.85;;;17.40;70.00;;;;;;4987296;28;20046;-69
2023/06/29 02:03:44;;;;;;;5.20;3.15;;;17.30;70.10;;;;;;5003284;28;20041;-71
2023/06/29 02:06:11;;;;;;;5.55;3.30;;;17.30;70.20;;;;;;5005096;28;20038;-71
2023/06/29 02:08:38;;;;;;;5.07;3.05;;;17.20;70.20;;;;;;5003346;28;20041;-70
2023/06/29 02:11:07;;;;;;;5.30;3.40;;;17.30;70.30;;;;;;5004436;28;20057;-71
2023/06/29 02:13:33;;;;;;;4.63;3.25;;;17.30;70.30;;;;;;4997713;28;20049;-69
2023/06/29 02:16:04;;;;;;;6.10;2.67;;;17.20;70.40;;;;;;5000704;28;20050;-71
2023/06/29 02:18:32;;;;;;;5.85;3.08;;;17.20;70.50;;;;;;5014691;28;20123;-70
2023/06/29 02:21:00;;;;;;;5.90;3.28;;;17.20;70.60;;;;;;5018834;28;20123;-69
2023/06/29 02:23:28;;;;;;;6.88;3.05;;;17.20;70.60;;;;;;5018306;28;20057;-69
2023/06/29 02:25:55;;;;;;;4.38;3.00;;;17.10;70.70;;;;;;5018647;28;20053;-70
2023/06/29 02:28:22;;;;;;;3.65;2.60;;;17.10;70.80;;;;;;5020612;28;20488;-71
2023/06/29 02:30:53;;;;;;;5.68;2.60;;;17.10;70.80;;;;;;5017673;28;20057;-72
2023/06/29 02:33:24;;;;;;;5.70;2.97;;;17.10;70.80;;;;;;5000732;28;20465;-72
2023/06/29 02:35:51;;;;;;;4.82;2.95;;;17.10;70.80;;;;;;4986383;28;20050;-70
2023/06/29 02:38:18;;;;;;;5.88;2.80;;;17.10;71.00;;;;;;4999993;28;20061;-71
2023/06/29 02:40:45;;;;;;;4.53;2.70;;;17.10;71.00;;;;;;5017194;28;20057;-70
2023/06/29 02:43:14;;;;;;;4.75;2.83;;;17.00;71.10;;;;;;5001550;28;20077;-71
2023/06/29 02:45:41;;;;;;;4.70;2.70;;;17.00;71.10;;;;;;5001056;28;20057;-71
2023/06/29 02:48:07;;;;;;;5.28;2.97;;;17.00;71.10;;;;;;4996420;28;20052;-70
2023/06/29 02:50:36;;;;;;;7.40;2.72;;;16.90;71.20;;;;;;5000181;28;20652;-71
2023/06/29 02:53:03;;;;;;;4.72;2.80;;;16.90;71.20;;;;;;5000786;28;20061;-70
2023/06/29 02:55:31;;;;;;;4.88;2.88;;;16.90;71.40;;;;;;4998888;28;20050;-71
2023/06/29 02:57:58;;;;;;;4.22;2.53;;;16.90;71.40;;;;;;4998720;28;20050;-70
2023/06/29 03:00:26;;;;;;;4.22;2.65;;;16.80;71.50;;;;;;4998089;28;20058;-69
2023/06/29 03:02:54;;;;;;;5.35;3.03;;;16.80;71.60;;;;;;5013636;28;20053;-71
2023/06/29 03:05:21;;;;;;;5.78;3.22;;;16.70;71.80;;;;;;5012072;28;20053;-70
2023/06/29 03:07:49;;;;;;;7.70;3.50;;;16.70;71.80;;;;;;5016292;28;20072;-71
2023/06/29 03:10:16;;;;;;;4.72;2.88;;;16.70;71.80;;;;;;5017856;28;20053;-71
2023/06/29 03:12:43;;;;;;;4.68;2.90;;;16.70;71.80;;;;;;5017113;28;20049;-69
2023/06/29 03:15:11;;;;;;;6.90;2.70;;;16.70;71.90;;;;;;5019337;28;20124;-70
2023/06/29 03:17:38;;;;;;;7.50;3.00;;;16.60;72.00;;;;;;5016457;28;20097;-71
2023/06/29 03:20:06;;;;;;;6.38;2.78;;;16.60;72.10;;;;;;5016264;28;20045;-71
2023/06/29 03:22:33;;;;;;;5.88;2.50;;;16.60;72.20;;;;;;5008439;28;20049;-70
2023/06/29 03:25:03;;;;;;;5.82;3.05;;;16.60;72.20;;;;;;5010630;28;20062;-70
2023/06/29 03:27:30;;;;;;;5.35;3.22;;;16.60;72.10;;;;;;5016726;28;20049;-71
2023/06/29 03:29:57;;;;;;;4.65;3.08;;;16.60;72.00;;;;;;5015155;28;20394;-70
2023/06/29 03:32:24;;;;;;;5.50;3.33;;;16.60;72.10;;;;;;5010067;28;20117;-71
2023/06/29 03:34:51;;;;;;;4.80;3.20;;;16.60;72.20;;;;;;4986332;28;20060;-70
2023/06/29 03:37:17;;;;;;;5.50;3.25;;;16.50;72.20;;;;;;4979225;28;20118;-71
2023/06/29 03:39:44;;;;;;;4.35;3.03;;;16.50;72.30;;;;;;4982454;28;20051;-71
2023/06/29 03:42:12;;;;;;;6.35;3.13;;;16.50;72.30;;;;;;4983290;28;20101;-71
2023/06/29 03:44:40;;;;;;;6.22;3.63;;;16.50;72.30;;;;;;4979380;28;20049;-71
2023/06/29 03:47:08;;;;;;;5.70;3.10;;;16.50;72.30;;;;;;4996153;28;20579;-70
2023/06/29 03:49:35;;;;;;;5.72;3.55;;;16.50;72.50;;;;;;5015255;28;20033;-69
2023/06/29 03:52:02;;;;;;;8.60;3.72;;;16.40;72.70;;;;;;5016757;28;20128;-69
2023/06/29 03:54:28;;;;;;;4.97;3.53;;;16.40;72.60;;;;;;5015803;28;20050;-71
2023/06/29 03:56:55;;;;;;;5.53;3.22;;;16.50;72.30;;;;;;5014856;28;20048;-69
2023/06/29 03:59:24;;;;;;;6.30;3.50;;;16.50;72.20;;;;;;5018421;28;20038;-70
2023/06/29 04:01:51;;;;;;;5.97;3.05;;;16.50;72.20;;;;;;5016752;28;20076;-69
2023/06/29 04:04:17;;;;;;;5.75;3.03;;;16.50;72.30;;;;;;5008339;28;20069;-69
2023/06/29 04:06:44;;;;;;;4.90;2.80;;;16.50;72.40;;;;;;5014340;28;20041;-71
2023/06/29 04:09:12;;;;;;;5.93;3.10;;;16.40;72.50;;;;;;5015530;28;20061;-71
2023/06/29 04:11:39;;;;;;;4.90;3.08;;;16.60;72.30;;;;;;5014768;28;20425;-69
2023/06/29 04:14:05;;;;;;;4.90;2.75;;;16.50;72.40;;;;;;5013681;28;20037;-70
2023/06/29 04:16:34;;;;;;;6.75;3.00;;;16.50;72.50;;;;;;5017042;28;20079;-70
2023/06/29 04:19:01;;;;;;;4.35;3.13;;;16.60;72.50;;;;;;5012863;28;20060;-70
2023/06/29 04:21:28;;;;;;;3.60;2.53;;;16.60;72.30;;;;;;5009788;28;20050;-70
2023/06/29 04:23:54;;;;;;;7.53;3.33;;;16.60;72.40;;;;;;5013793;28;20524;-69
2023/06/29 04:26:22;;;;;;;5.82;3.22;;;16.70;72.00;;;;;;5013939;28;20054;-69
2023/06/29 04:28:50;;;;;;;5.75;2.97;;;16.70;71.80;;;;;;5016077;28;20058;-70
2023/06/29 04:31:17;;;;;;;5.97;3.20;;;16.70;71.90;;;;;;5008982;28;20056;-69
2023/06/29 04:33:45;;;;;;;4.97;3.13;;;16.60;72.10;;;;;;5015681;28;20058;-70
2023/06/29 04:36:13;;;;;;;6.25;3.40;;;16.60;72.10;;;;;;5014613;28;20143;-71
2023/06/29 04:38:40;;;;;;;6.65;3.22;;;16.60;72.30;;;;;;5014653;28;20138;-70
2023/06/29 04:41:07;;;;;;;4.45;2.97;;;16.60;72.60;;;;;;4996489;28;20046;-70
2023/06/29 04:43:36;;;;;;;5.50;3.25;;;16.60;72.60;;;;;;4996370;28;20124;-71
2023/06/29 04:46:03;;;;;;;4.75;2.80;;;16.60;72.40;;;;;;5010481;28;20048;-70
2023/06/29 04:48:32;;;;;;;5.25;3.10;;;16.70;72.20;;;;;;5013018;28;20054;-71
2023/06/29 04:51:04;;;;;;;5.47;3.10;;;16.70;72.00;;;;;;5013363;28;20038;-71
2023/06/29 04:53:32;;;;;;;4.05;2.78;;;16.80;72.00;;;;;;5013100;28;20057;-70
2023/06/29 04:55:59;;;;;;;4.72;3.03;;;16.80;71.90;;;;;;5009401;28;20556;-70
2023/06/29 04:58:26;;;;;;;5.50;3.20;;;16.80;71.90;;;;;;5013724;28;20517;-70
2023/06/29 05:00:54;;;;;;;6.40;3.30;;;16.90;71.80;;;;;;5014404;28;20390;-71
2023/06/29 05:03:21;;;;;;;7.10;3.28;;;16.90;71.70;;;;;;5007508;28;20065;-71
2023/06/29 05:05:48;;;;;;;5.38;3.03;;;16.90;72.00;;;;;;5014598;28;20050;-70
2023/06/29 05:08:16;;;;;;;4.30;2.83;;;16.90;71.80;;;;;;5015402;28;20053;-70
2023/06/29 05:10:43;;;;;;;6.15;3.40;;;17.00;71.80;;;;;;5013627;28;20943;-70
2023/06/29 05:13:10;;;;;;;6.38;3.58;;;17.00;71.60;;;;;;5015507;28;20069;-70
2023/06/29 05:15:36;;;;;;;5.03;3.47;;;17.00;71.60;;;;;;5016172;28;20396;-70
2023/06/29 05:18:04;;;;;;;6.53;3.35;;;17.10;71.20;;;;;;5016223;28;20058;-69
2023/06/29 05:20:31;;;;;;;5.90;3.13;;;17.10;71.20;;;;;;5012365;28;20050;-70
2023/06/29 05:22:58;;;;;;;6.43;3.15;;;17.10;71.20;;;;;;5015665;28;20050;-71
2023/06/29 05:25:27;;;;;;;5.85;3.13;;;17.10;71.50;;;;;;5012388;28;20061;-69
2023/06/29 05:27:54;;;;;;;5.22;3.15;;;17.10;71.70;;;;;;5015686;28;20049;-72
2023/06/29 05:30:21;;;;;;;4.82;3.10;;;17.10;71.60;;;;;;4994452;28;20053;-70
2023/06/29 05:32:48;;;;;;;6.15;3.30;;;17.10;71.80;;;;;;4979277;28;20531;-70
2023/06/29 05:35:14;;;;;;;5.53;3.17;;;17.10;72.10;;;;;;4978668;28;20054;-71
2023/06/29 05:37:41;;;;;;;5.22;2.70;;;17.10;71.90;;;;;;4978674;28;20046;-71
2023/06/29 05:40:09;;;;;;;4.90;2.95;;;17.20;71.20;;;;;;5004389;28;20064;-71
2023/06/29 05:42:38;;;;;;;6.05;3.17;;;17.20;71.10;;;;;;5014164;28;20162;-72
2023/06/29 05:45:06;;;;;;;6.22;2.80;;;17.20;71.50;;;;;;5016031;28;20081;-69
2023/06/29 05:47:32;;;;;;;5.25;3.03;;;17.20;71.50;;;;;;5017990;28;20508;-71
2023/06/29 05:49:59;;;;;;;6.10;3.28;;;17.30;71.60;;;;;;5012185;28;20485;-70
2023/06/29 05:52:26;;;;;;;7.75;4.25;;;17.30;71.30;;;;;;5016366;28;20044;-71
2023/06/29 05:54:53;;;;;;;8.23;5.05;;;17.30;71.60;;;;;;4997836;28;20058;-72
2023/06/29 05:57:20;;;;;;;7.72;4.38;;;17.40;71.50;;;;;;5014837;28;20056;-70
2023/06/29 05:59:48;;;;;;;6.53;4.07;;;17.40;71.50;;;;;;5011923;28;20046;-71
2023/06/29 06:02:15;;;;;;;7.50;4.18;;;17.40;71.50;;;;;;5014098;28;20046;-70
2023/06/29 06:04:42;;;;;;;7.53;4.07;;;17.40;71.30;;;;;;5014467;28;20069;-69
2023/06/29 06:07:10;;;;;;;6.10;3.83;;;17.50;71.50;;;;;;5015561;28;20124;-71
2023/06/29 06:09:37;;;;;;;7.85;4.45;;;17.60;71.20;;;;;;5014160;28;20053;-70
2023/06/29 06:12:05;;;;;;;6.38;4.40;;;17.60;71.10;;;;;;5015575;28;20042;-71
2023/06/29 06:14:32;;;;;;;9.13;6.10;;;17.60;70.60;;;;;;5015390;28;20084;-69
2023/06/29 06:17:00;;;;;;;10.45;6.80;;;17.70;70.70;;;;;;5010879;28;20053;-70
2023/06/29 06:19:27;;;;;;;10.70;7.70;;;17.80;70.90;;;;;;5013846;28;20065;-71
2023/06/29 06:21:54;;;;;;;10.30;7.65;;;17.70;70.00;;;;;;5015859;28;20060;-71
2023/06/29 06:24:21;;;;;;;10.98;7.47;;;17.80;70.60;;;;;;5017302;28;20046;-70
2023/06/29 06:26:48;;;;;;;10.65;6.63;;;17.90;70.20;;;;;;5021283;28;20056;-71
2023/06/29 06:29:15;;;;;;;9.93;6.75;;;18.00;69.90;;;;;;5018852;28;20469;-72
2023/06/29 06:31:42;;;;;;;10.02;6.32;;;18.10;69.40;;;;;;5015888;28;20041;-69
2023/06/29 06:34:10;;;;;;;10.88;7.07;;;18.10;69.60;;;;;;5017597;28;20054;-71
2023/06/29 06:36:37;;;;;;;10.43;6.15;;;18.30;69.40;;;;;;5018716;28;20084;-69
2023/06/29 06:39:06;;;;;;;9.10;5.40;;;18.50;69.10;;;;;;4985553;28;20425;-71
2023/06/29 06:41:33;;;;;;;10.25;6.22;;;18.60;69.00;;;;;;5004401;28;20093;-71
2023/06/29 06:44:00;;;;;;;8.20;5.47;;;18.80;68.70;;;;;;5007628;28;20061;-70
2023/06/29 06:46:27;;;;;;;6.35;4.22;;;18.90;68.40;;;;;;5018168;28;20040;-70
2023/06/29 06:48:55;;;;;;;7.22;4.63;;;19.10;68.30;;;;;;5015236;28;20392;-70
2023/06/29 06:51:25;;;;;;;6.78;4.38;;;19.20;68.20;;;;;;5018789;28;20409;-68
2023/06/29 06:53:51;;;;;;;7.70;4.25;;;19.30;68.00;;;;;;5017983;28;20136;-69
2023/06/29 06:56:18;;;;;;;8.43;3.97;;;19.50;67.70;;;;;;5019209;28;20041;-69
2023/06/29 06:58:46;;;;;;;9.20;4.57;;;19.60;67.30;;;;;;5017083;28;20069;-69
2023/06/29 07:01:13;;;;;;;6.97;3.95;;;19.80;66.70;;;;;;5016211;28;20057;-69
2023/06/29 07:03:40;;;;;;;6.18;4.07;;;20.00;66.50;;;;;;5018013;28;20540;-69
2023/06/29 07:06:07;;;;;;;7.10;3.65;;;20.20;65.90;;;;;;5017033;28;20060;-69
2023/06/29 07:08:36;;;;;;;6.95;3.95;;;20.30;65.50;;;;;;5010712;28;20080;-69
2023/06/29 07:11:03;;;;;;;6.43;4.07;;;20.50;65.10;;;;;;5019915;28;20057;-69
2023/06/29 07:13:31;;;;;;;5.65;3.72;;;20.70;64.70;;;;;;5019037;28;20066;-71
2023/06/29 07:15:58;;;;;;;4.65;2.88;;;20.80;64.40;;;;;;5016666;28;20048;-69
2023/06/29 07:18:25;;;;;;;6.63;3.70;;;21.00;64.10;;;;;;5016268;28;20069;-70
2023/06/29 07:20:52;;;;;;;6.00;3.92;;;21.20;63.30;;;;;;5014358;28;20063;-70
2023/06/29 07:23:19;;;;;;;6.90;3.33;;;21.40;62.90;;;;;;5014869;28;20038;-71
2023/06/29 07:25:47;;;;;;;7.55;3.95;;;21.60;62.90;;;;;;5018511;28;20041;-69
2023/06/29 07:28:14;;;;;;;5.20;3.50;;;21.80;62.00;;;;;;5018107;28;20059;-69
2023/06/29 07:30:41;;;;;;;8.35;3.38;;;22.10;61.70;;;;;;5018505;28;20058;-70
2023/06/29 07:33:08;;;;;;;6.03;3.97;;;22.20;61.30;;;;;;5014037;28;20052;-70
2023/06/29 07:35:35;;;;;;;6.28;3.78;;;22.40;60.90;;;;;;5016074;28;20805;-71
2023/06/29 07:38:02;;;;;;;6.85;4.28;;;22.50;60.40;;;;;;5016325;28;20042;-72
2023/06/29 07:40:29;;;;;;;6.47;4.47;;;22.70;59.90;;;;;;5000898;28;20120;-70
2023/06/29 07:42:57;;;;;;;5.93;3.40;;;22.90;59.70;;;;;;5016571;28;20037;-69
2023/06/29 07:45:24;;;;;;;6.20;3.78;;;23.00;59.20;;;;;;5018137;28;20056;-70
2023/06/29 07:47:51;;;;;;;5.40;3.35;;;23.20;58.30;;;;;;5018829;28;20137;-69
2023/06/29 07:50:18;;;;;;;6.03;3.30;;;23.30;57.90;;;;;;5015944;28;20481;-70
2023/06/29 07:52:45;;;;;;;6.45;3.45;;;23.40;57.50;;;;;;4998432;28;20050;-71
2023/06/29 07:55:12;;;;;;;5.68;3.78;;;23.60;57.00;;;;;;5018236;28;20048;-71
2023/06/29 07:57:39;;;;;;;6.95;3.83;;;23.70;56.30;;;;;;5018729;28;20049;-70
2023/06/29 08:00:10;;;;;;;6.78;3.58;;;23.90;55.90;;;;;;5019058;28;20049;-66
2023/06/29 08:02:46;;;;;;;5.35;3.25;;;24.00;55.00;;;;;;5015476;28;20512;-70
2023/06/29 08:05:14;;;;;;;5.72;2.65;;;24.20;54.50;;;;;;5016220;28;20054;-71
2023/06/29 08:07:41;;;;;;;5.22;2.60;;;24.30;54.10;;;;;;5007137;28;20045;-69
2023/06/29 08:10:09;;;;;;;5.40;2.70;;;24.40;53.70;;;;;;5015659;28;20398;-69
2023/06/29 08:12:36;;;;;;;4.05;2.53;;;24.60;53.00;;;;;;5017549;28;20046;-68
2023/06/29 08:15:03;;;;;;;5.45;2.70;;;24.60;52.30;;;;;;5017796;28;20056;-71
2023/06/29 08:17:31;;;;;;;6.80;2.65;;;24.70;52.30;;;;;;5017297;28;20046;-70
2023/06/29 08:19:58;;;;;;;3.50;2.38;;;24.80;52.30;;;;;;5018571;28;20053;-70
2023/06/29 08:22:25;;;;;;;4.32;2.35;;;25.00;52.20;;;;;;4998139;28;20128;-69
2023/06/29 08:24:52;;;;;;;5.75;2.60;;;25.10;51.70;;;;;;5017734;28;20103;-70
2023/06/29 08:27:19;;;;;;;4.65;2.47;;;25.10;51.30;;;;;;4992405;28;20049;-70
2023/06/29 08:29:46;;;;;;;4.40;2.67;;;25.20;51.30;;;;;;5014654;28;20444;-70
2023/06/29 08:32:14;;;;;;;3.67;2.38;;;25.40;51.00;;;;;;5016522;28;20053;-70
2023/06/29 08:34:42;;;;;;;3.83;2.50;;;25.60;50.90;;;;;;5017858;28;20061;-68
2023/06/29 08:37:09;;;;;;;3.40;2.03;;;25.60;50.60;;;;;;5016097;28;20049;-70
2023/06/29 08:39:36;;;;;;;4.05;2.42;;;25.70;50.40;;;;;;5017261;28;20067;-70
2023/06/29 08:42:04;;;;;;;4.70;2.38;;;25.70;50.30;;;;;;5017064;28;20038;-70
2023/06/29 08:44:31;;;;;;;3.88;2.28;;;25.70;49.90;;;;;;5014084;28;20048;-69
2023/06/29 08:47:01;;;;;;;4.45;2.10;;;25.80;49.70;;;;;;5016186;28;20046;-69
2023/06/29 08:49:29;;;;;;;3.85;2.10;;;25.90;49.70;;;;;;5017802;28;20050;-70
2023/06/29 08:52:00;;;;;;;3.90;2.20;;;26.00;49.50;;;;;;5016351;28;20042;-68
2023/06/29 08:54:27;;;;;;;3.42;2.13;;;26.00;49.60;;;;;;4999891;28;20042;-70
2023/06/29 08:56:54;;;;;;;4.63;2.15;;;26.10;49.20;;;;;;5008055;28;20053;-68
2023/06/29 08:59:22;;;;;;;3.95;2.20;;;26.10;48.90;;;;;;5016450;28;20046;-71
2023/06/29 09:01:49;;;;;;;4.68;2.22;;;26.20;48.90;;;;;;5014505;28;20064;-70
2023/06/29 09:04:16;;;;;;;4.25;2.40;;;26.40;48.60;;;;;;5016337;28;20049;-69
2023/06/29 09:06:43;;;;;;;4.65;2.47;;;26.40;48.70;;;;;;5016831;28;20064;-69
2023/06/29 09:09:11;;;;;;;4.90;2.20;;;26.60;49.10;;;;;;5015358;28;20050;-70
2023/06/29 09:11:38;;;;;;;4.50;2.13;;;26.70;48.50;;;;;;5017048;28;20053;-70
2023/06/29 09:14:06;;;;;;;4.85;2.45;;;26.80;48.90;;;;;;5014481;28;20110;-71
2023/06/29 09:16:34;;;;;;;3.10;2.00;;;26.80;47.90;;;;;;5009662;28;20390;-70
2023/06/29 09:19:01;;;;;;;4.85;2.28;;;26.90;48.10;;;;;;5012655;28;20125;-69
2023/06/29 09:21:29;;;;;;;3.38;2.00;;;26.90;47.80;;;;;;5018529;28;20069;-70
2023/06/29 09:23:57;;;;;;;3.25;1.90;;;27.00;47.60;;;;;;5013616;28;20050;-69
2023/06/29 09:26:28;;;;;;;4.33;2.20;;;27.10;47.30;;;;;;5013027;28;20073;-69
2023/06/29 09:28:59;;;;;;;3.50;2.25;;;27.20;47.40;;;;;;5014117;28;20060;-69
2023/06/29 09:31:32;;;;;;;4.35;2.13;;;27.20;47.30;;;;;;5017586;28;20128;-70
2023/06/29 09:34:17;;;;;;;3.95;1.95;;;27.30;47.10;;;;;;5014461;28;20070;-70
2023/06/29 09:36:44;;;;;;;3.80;2.50;;;27.50;47.20;;;;;;5014772;28;20065;-70
2023/06/29 09:39:12;;;;;;;4.68;2.17;;;27.60;46.70;;;;;;5010503;28;20038;-69
2023/06/29 09:41:48;;;;;;;3.57;1.87;;;27.70;46.60;;;;;;5014238;28;20065;-70
2023/06/29 09:44:19;;;;;;;3.95;2.20;;;27.80;45.90;;;;;;5015706;28;20773;-69
2023/06/29 09:46:46;;;;;;;5.07;2.40;;;27.70;45.70;;;;;;5006482;28;20124;-70
2023/06/29 09:49:13;;;;;;;5.15;2.38;;;27.80;45.70;;;;;;5017094;28;20457;-70
2023/06/29 09:51:39;;;;;;;3.22;2.20;;;27.80;45.70;;;;;;5016128;28;20056;-69
2023/06/29 09:54:10;;;;;;;4.07;2.28;;;28.00;45.60;;;;;;5015044;28;20077;-69
2023/06/29 09:56:38;;;;;;;3.45;2.10;;;28.00;45.40;;;;;;5013890;28;20041;-69
2023/06/29 09:59:10;;;;;;;3.95;2.58;;;28.10;45.40;;;;;;5014278;28;20042;-69
2023/06/29 10:01:37;;;;;;;4.78;2.50;;;28.20;45.10;;;;;;5020790;28;20056;-68
2023/06/29 10:04:05;;;;;;;4.07;2.38;;;28.30;45.20;;;;;;5016568;28;20050;-69
2023/06/29 10:06:39;;;;;;;2.97;1.97;;;28.30;45.20;;;;;;5018914;28;20058;-70
2023/06/29 10:09:06;;;;;;;4.25;2.00;;;28.40;45.00;;;;;;5015562;28;20049;-69
2023/06/29 10:11:36;;;;;;;4.90;2.03;;;28.40;44.90;;;;;;5017350;28;20677;-69
2023/06/29 10:14:07;;;;;;;5.25;2.20;;;28.40;44.80;;;;;;5017868;28;20054;-69
2023/06/29 10:16:37;;;;;;;3.75;2.35;;;28.50;44.70;;;;;;5017971;28;20053;-71
2023/06/29 10:19:13;;;;;;;6.20;2.65;;;28.60;44.40;;;;;;4997350;28;20042;-68
2023/06/29 10:21:40;;;;;;;6.50;2.63;;;28.80;44.00;;;;;;5019999;28;20478;-68
2023/06/29 10:24:08;;;;;;;3.63;2.20;;;28.90;44.00;;;;;;5018890;28;20046;-69
2023/06/29 10:26:35;;;;;;;5.18;2.45;;;29.00;44.10;;;;;;5019233;28;20120;-69
2023/06/29 10:29:06;;;;;;;3.50;1.88;;;28.90;43.60;;;;;;5019293;28;20076;-70
2023/06/29 10:31:34;;;;;;;2.78;1.83;;;29.00;43.80;;;;;;5016210;28;20049;-70
2023/06/29 10:34:01;;;;;;;5.47;2.30;;;29.00;43.70;;;;;;5017748;28;20497;-70
2023/06/29 10:36:43;;;;;;;4.78;2.60;;;29.00;43.30;;;;;;5017404;28;20049;-70
2023/06/29 10:39:39;;;;;;;3.90;2.35;;;29.20;43.40;;;;;;5018457;28;20054;-69
2023/06/29 10:42:11;;;;;;;3.80;2.33;;;29.10;43.30;;;;;;5018447;28;20144;-69
2023/06/29 10:44:40;;;;;;;3.78;2.35;;;28.90;43.20;;;;;;5019601;28;20046;-69
2023/06/29 10:47:07;;;;;;;;;;;29.00;43.20;;;;;;5019522;28;20400;-69
2023/06/29 10:49:34;;;;;;;4.50;2.50;;;29.10;43.20;;;;;;5018172;28;20372;-69
2023/06/29 10:52:03;;;;;;;4.28;2.53;;;29.20;42.90;;;;;;5001191;28;20049;-69
2023/06/29 10:54:30;;;;;;;4.45;2.58;;;29.40;43.10;;;;;;5018098;28;20038;-69
2023/06/29 10:56:58;;;;;;;5.18;2.35;;;29.50;42.80;;;;;;5019285;28;20104;-69
2023/06/29 10:59:26;;;;;;;5.22;2.53;;;29.60;42.60;;;;;;5016775;28;20058;-69
2023/06/29 11:01:55;;;;;;;4.35;2.30;;;29.60;42.30;;;;;;5011802;28;20132;-69
2023/06/29 11:04:23;;;;;;;4.82;2.03;;;29.60;41.80;;;;;;5017003;28;20053;-69
2023/06/29 11:06:50;;;;;;;4.80;2.47;;;29.70;41.70;;;;;;5017160;28;20048;-70
2023/06/29 11:09:19;;;;;;;3.42;2.38;;;29.60;41.90;;;;;;5016053;28;20050;-68
2023/06/29 11:11:48;;;;;;;3.30;2.20;;;29.60;41.60;;;;;;5017583;28;20096;-70
2023/06/29 11:14:15;;;;;;;4.10;2.60;;;29.60;41.60;;;;;;5018545;28;20072;-68
2023/06/29 11:16:42;;;;;;;3.47;2.25;;;29.60;41.80;;;;;;5017486;28;20050;-69
2023/06/29 11:19:11;;;;;;;3.90;2.10;;;29.90;41.60;;;;;;5017588;28;20060;-69
2023/06/29 11:21:38;;;;;;;3.38;2.10;;;30.00;41.20;;;;;;5017941;28;20513;-68
2023/06/29 11:24:05;;;;;;;3.38;1.90;;;30.00;40.90;;;;;;5019579;28;20151;-69
2023/06/29 11:26:32;;;;;;;3.38;1.88;;;30.00;40.40;;;;;;5017642;28;20049;-69
2023/06/29 11:28:59;;;;;;;3.70;1.88;;;30.00;40.80;;;;;;5016520;28;20056;-70
2023/06/29 11:31:26;;;;;;;3.80;1.88;;;30.10;40.50;;;;;;5014392;28;20038;-69
2023/06/29 11:33:53;;;;;;;3.80;2.08;;;30.30;40.40;;;;;;5014946;28;20157;-68
2023/06/29 11:36:33;;;;;;;5.07;2.13;;;30.30;40.10;;;;;;5015292;28;20050;-69
2023/06/29 11:39:08;;;;;;;5.57;4.35;;;30.20;40.30;;;;;;5015782;28;20056;-69
2023/06/29 11:41:35;;;;;;;8.40;6.78;;;30.10;40.60;;;;;;5018398;28;20049;-70
2023/06/29 11:44:05;;;;;;;9.38;8.35;;;30.30;40.00;;;;;;5016129;28;20046;-69
2023/06/29 11:46:33;;;;;;;10.93;9.82;;;30.40;40.10;;;;;;5011238;28;20116;-69
2023/06/29 11:49:00;;;;;;;12.32;9.23;;;30.50;39.80;;;;;;5016000;28;20421;-70
2023/06/29 11:51:29;;;;;;;11.57;7.60;;;30.70;39.80;;;;;;4997033;28;20053;-69
2023/06/29 11:53:56;;;;;;;8.98;7.15;;;30.90;39.30;;;;;;5018234;28;20049;-70
2023/06/29 11:56:29;;;;;;;7.00;5.50;;;30.90;39.50;;;;;;5017108;28;20362;-69
2023/06/29 11:59:05;;;;;;;6.10;4.70;;;30.70;39.30;;;;;;5014610;28;20084;-69
2023/06/29 12:01:32;;;;;;;6.30;4.43;;;30.50;39.30;;;;;;5015192;28;20326;-71
2023/06/29 12:03:59;;;;;;;6.40;4.57;;;30.30;39.70;;;;;;5015479;28;21420;-68
2023/06/29 12:06:27;;;;;;;5.97;3.92;;;30.10;40.00;;;;;;5014234;28;20374;-69
2023/06/29 12:08:54;;;;;;;5.85;3.30;;;30.00;39.70;;;;;;5014534;28;20049;-68
2023/06/29 12:11:21;;;;;;;4.30;2.78;;;29.80;40.30;;;;;;5017508;28;20045;-70
2023/06/29 12:13:49;;;;;;;4.65;2.97;;;29.60;40.50;;;;;;5016203;28;20056;-69
2023/06/29 12:16:16;;;;;;;5.47;3.80;;;29.60;40.60;;;;;;5015577;28;20052;-70
2023/06/29 12:18:44;;;;;;;5.65;3.38;;;29.60;41.20;;;;;;5013423;28;20058;-68
2023/06/29 12:21:19;;;;;;;6.43;4.35;;;29.50;41.50;;;;;;5013859;28;20136;-69
2023/06/29 12:23:47;;;;;;;6.25;4.63;;;29.50;41.30;;;;;;5015198;28;20083;-69
2023/06/29 12:26:15;;;;;;;7.05;5.00;;;29.40;41.50;;;;;;5013598;28;20060;-70
2023/06/29 12:28:42;;;;;;;7.22;5.03;;;29.40;41.60;;;;;;5017026;28;20046;-69
2023/06/29 12:31:09;;;;;;;6.20;4.55;;;29.30;41.90;;;;;;5014744;28;20130;-67
2023/06/29 12:33:36;;;;;;;7.45;5.43;;;29.20;42.30;;;;;;5014806;28;20401;-70
2023/06/29 12:36:04;;;;;;;7.80;6.07;;;29.10;42.50;;;;;;5015856;28;20083;-70
2023/06/29 12:38:30;;;;;;;9.25;6.85;;;29.10;42.60;;;;;;5017129;28;20117;-69
2023/06/29 12:40:59;;;;;;;7.35;5.55;;;29.00;42.40;;;;;;5012108;28;20125;-67
2023/06/29 12:43:26;;;;;;;7.03;5.28;;;28.90;42.90;;;;;;5014443;28;20095;-69
2023/06/29 12:45:53;;;;;;;9.82;5.28;;;28.90;42.60;;;;;;5016052;28;20525;-70
2023/06/29 12:48:20;;;;;;;7.03;5.30;;;29.00;42.80;;;;;;5011195;28;20120;-69
2023/06/29 12:50:47;;;;;;;6.45;4.15;;;29.00;42.70;;;;;;5016758;28;20052;-70